Terminal Aerodrome Forecast
Issued by NWS San Angelo, TX

Home | Current Version | Previous Version | Text Only | Print | Product List | Glossary On
Versions: 1 2 3 4 5 6 7 8 9 10 11 12 13 14 15 16 17 18 19 20
000
FTUS44 KSJT 291946 AAA
TAFABI
TAF AMD
KABI 291946Z 2920/3018 18010KT P6SM FEW045
     FM300100 15011KT P6SM VCTS SCT050CB BKN100
     FM300300 14010KT 5SM -TSRA BKN040CB
     FM300500 15008KT P6SM VCSH BKN070
     FM301000 16008KT P6SM SCT120=

USA.gov is the U.S. government's official web portal to all federal, state and local government web resources and services.